Airfield :
LOGIN :

Register | Disclaimer

   EN    FR    IT 

 










Legend :    VFR   Marginal VFR   IFR   Intensive IFR   Very Intensive IFR
Visi :
Ceiling :
>= 8 km
>= 3000ft
5 to 8 km
1000 to 3000 ft
1500m to 5 km
500 to 1000 ft
800 to 1500m
200 to 500 ft
< 800m
< 200 ft
Symbols :   Thunderstorms  Fog  Heavy snow  Heavy precipitations  Wind > 20 kt
SIGMETs :     Misc.  Thunderstorms  Icing  Turbulence  Mountain Waves  Volcanic Ashes






- Airport Elevation : 622 ft
- IATA code : BRS


EGGD - Bristol Int.

CURRENT METAR :
  • 302220Z AUTO 23007KT 9999 FEW008 BKN012 BKN019 11/11 Q1000

EXPIRED METARs :
  • 302150Z AUTO 23008KT 9000 -RA FEW005/// BKN010/// BKN018/// //////TCU 12/11 Q1000 RERA REDZ
  • 302120Z AUTO 22007KT 9999 -RA BKN014/// //////CB 12/11 Q1000
  • 302050Z AUTO 22005KT 9999 FEW015/// BKN022/// BKN028/// //////CB 12/11 Q1000
  • 302020Z AUTO 22007KT 9999 FEW018/// SCT026/// BKN031/// //////CB 12/11 Q1000
  • 301950Z AUTO 21006KT 9999 FEW018/// SCT025/// BKN035/// //////TCU 12/12 Q1000

TAF TAF EGGD
Valid from the 30 at 18:00 until the 01 at 18:00 UTC


301700Z 3018/0118 22012KT 9999 FEW012 SCT025
TEMPO 3018/0118 6000 SHRA BKN012
PROB30
TEMPO 3018/0118 4000 +SHRA BKN008
BECMG 3021/3024 28006KT
ATIS : +44 1275 473 666



MET'MAP, your aeronautical weather chart ! - Copyright ORBIFLY December 2007 - Disclaimer

ORBIFLY MET'MAP TEAM :

Programming & Development : Alexandra Zaïnal
Concept & original design : Baudouin d'Aumeries
Assistance for programming : Marc-Olivier Méhu
Technical & hardware support : Manuel Goepfert

Contact : metmap@orbifly.com




SOURCES & CREDITS :

   NOAA